Data for 12/09/2005

Time Sea-Level Adjusted Pressure Absolute Pressure Temperature Relative Humidity Dew Point   
(mb) (inHg) (mb) (inHg) (C) (F) (%) (C) (F)
00:05 1024 30.24 853 25.19 -11.4 11.5 71 -15.7 3.7
00:10 1024 30.24 853 25.19 -12.1 10.2 76 -15.5 4.1
00:15 1023 30.21 853 25.19 -12.8 9 72 -16.8 1.8
00:20 1023 30.21 853 25.19 -12.1 10.2 69 -16.7 2
00:25 1023 30.21 853 25.19 -12.1 10.3 72 -16.1 2.9
00:30 1023 30.21 853 25.19 -12.1 10.1 66 -17.3 0.9
00:35 1023 30.21 853 25.19 -11.9 10.6 62 -17.7 0.1
00:40 1023 30.21 853 25.19 -11.4 11.4 65 -16.8 1.7
00:45 1023 30.21 852 25.16 -11.9 10.7 63 -17.5 0.6
00:50 1023 30.21 852 25.16 -11.8 10.7 62 -17.7 0.2
00:55 1023 30.21 852 25.16 -11.8 10.8 62 -17.7 0.2
01:00 1023 30.21 852 25.16 -11.8 10.9 62 -17.7 0.1
01:05 1023 30.21 852 25.16 -12.1 10.2 61 -18.1 -0.6
01:10 1023 30.21 852 25.16 -11.9 10.6 61 -17.9 -0.2
01:15 1023 30.21 852 25.16 -11.8 10.9 61 -17.9 -0.2
01:20 1023 30.21 852 25.16 -11.4 11.5 58 -18 -0.4
01:25 1023 30.21 852 25.16 -11.9 10.5 61 -18.1 -0.6
01:30 1023 30.21 852 25.16 -12.1 10.3 62 -18 -0.4
01:35 1023 30.21 852 25.16 -12 10.4 67 -16.9 1.6
01:40 1023 30.21 852 25.16 -12.2 10.1 70 -16.5 2.3
01:45 1023 30.21 853 25.19 -12.3 9.9 67 -17.3 0.9
01:50 1023 30.21 852 25.16 -12.2 10 65 -17.5 0.5
01:55 1023 30.21 853 25.19 -12.2 10.1 63 -17.9 -0.3
02:00 1023 30.21 853 25.19 -12 10.4 64 -17.5 0.6
02:05 1023 30.21 852 25.16 -11.7 11 62 -17.5 0.5
02:10 1023 30.21 853 25.19 -11.3 11.6 58 -18 -0.3
02:15 1023 30.21 853 25.19 -11.5 11.4 59 -17.9 -0.2
02:20 1023 30.21 853 25.19 -11.1 12.1 60 -17.3 0.8
02:25 1023 30.21 853 25.19 -10.6 12.9 61 -16.8 1.7
02:30 1024 30.24 853 25.19 -10 14 59 -16.6 2.2
02:35 1024 30.24 853 25.19 -9.9 14.2 57 -16.9 1.6
02:40 1024 30.24 853 25.19 -10.4 13.3 59 -17 1.4
02:45 1024 30.24 853 25.19 -11.1 12.1 61 -17.2 1.1
02:50 1024 30.24 853 25.19 -10.9 12.5 62 -16.9 1.7
02:55 1024 30.24 853 25.19 -10.8 12.6 62 -16.8 1.8
03:00 1024 30.24 853 25.19 -11.4 11.5 66 -16.5 2.3
03:05 1023 30.21 853 25.19 -11.7 10.9 67 -16.6 2.1
03:10 1023 30.21 853 25.19 -11.4 11.5 67 -16.4 2.5
03:15 1023 30.21 852 25.16 -11.3 11.7 68 -16 3.2
03:20 1023 30.21 852 25.16 -11.2 11.8 69 -15.8 3.5
03:25 1023 30.21 852 25.16 -10.9 12.4 71 -15.1 4.8
03:30 1023 30.21 852 25.16 -11.2 11.8 74 -15.1 4.9
03:35 1023 30.21 852 25.16 -11.4 11.4 68 -16.3 2.7
03:40 1023 30.21 852 25.16 -11.6 11.2 69 -16.1 3
03:45 1023 30.21 852 25.16 -11.8 10.7 71 -16.1 3
03:50 1023 30.21 852 25.16 -12 10.4 69 -16.6 2.1
03:55 1023 30.21 852 25.16 -12.2 10.1 70 -16.6 2.1
04:00 1023 30.21 852 25.16 -12 10.5 69 -16.5 2.3
04:05 1023 30.21 852 25.16 -11.7 11 69 -16.3 2.6
04:10 1023 30.21 852 25.16 -11.3 11.6 68 -16.1 3
04:15 1023 30.21 852 25.16 -11.2 11.9 69 -15.9 3.4
04:20 1023 30.21 852 25.16 -11.1 11.9 69 -15.7 3.7
04:25 1023 30.21 852 25.16 -11.2 11.8 71 -15.6 4
04:30 1023 30.21 852 25.16 -11.4 11.5 73 -15.4 4.3
04:35 1023 30.21 852 25.16 -11.5 11.3 73 -15.4 4.3
04:40 1023 30.21 852 25.16 -11.2 11.9 73 -15.2 4.7
04:45 1023 30.21 852 25.16 -11 12.2 71 -15.3 4.5
04:50 1023 30.21 852 25.16 -11.1 12.1 71 -15.3 4.5
04:55 1023 30.21 852 25.16 -11.3 11.7 74 -15.1 4.8
05:00 1023 30.21 852 25.16 -11.4 11.5 73 -15.3 4.5
05:05 1023 30.21 852 25.16 -11.3 11.7 72 -15.3 4.4
05:10 1023 30.21 852 25.16 -11 12.2 71 -15.2 4.6
05:15 1023 30.21 852 25.16 -10.8 12.6 71 -15.1 4.8
05:20 1022 30.18 852 25.16 -10.6 12.8 71 -15 5
05:25 1022 30.18 852 25.16 -10.5 13.2 71 -14.8 5.4
05:30 1022 30.18 852 25.16 -10.2 13.6 72 -14.4 6
05:35 1022 30.18 852 25.16 -10.6 12.9 73 -14.7 5.6
05:40 1022 30.18 851 25.13 -10.2 13.6 71 -14.5 5.9
05:45 1022 30.18 852 25.16 -10.7 12.7 72 -14.8 5.3
05:50 1022 30.18 852 25.16 -11.2 11.9 73 -15.1 4.8
05:55 1022 30.18 852 25.16 -11.3 11.7 73 -15.1 4.7
06:00 1022 30.18 851 25.13 -11.1 12.1 72 -15.2 4.7
06:05 1022 30.18 851 25.13 -10.9 12.4 71 -15.1 4.8
06:10 1022 30.18 852 25.16 -10.9 12.3 71 -15.2 4.6
06:15 1022 30.18 852 25.16 -10.9 12.5 71 -15.1 4.8
06:20 1023 30.21 852 25.16 -10.5 13.1 70 -15 5
06:25 1023 30.21 852 25.16 -10.3 13.4 69 -14.9 5.1
06:30 1023 30.21 852 25.16 -10.1 13.8 68 -15 5
06:35 1023 30.21 852 25.16 -10 14.1 68 -14.8 5.3
06:40 1023 30.21 852 25.16 -9.8 14.3 68 -14.7 5.5
06:45 1023 30.21 852 25.16 -9.8 14.5 68 -14.6 5.7
06:50 1023 30.21 852 25.16 -9.6 14.6 68 -14.5 5.8
06:55 1023 30.21 852 25.16 -9.6 14.7 67 -14.6 5.8
07:00 1023 30.21 852 25.16 -9.3 15.2 67 -14.3 6.2
07:05 1023 30.21 852 25.16 -9.7 14.6 68 -14.4 6
07:10 1023 30.21 852 25.16 -10.3 13.6 70 -14.7 5.5
07:15 1023 30.21 852 25.16 -10.3 13.6 69 -14.9 5.2
07:20 1023 30.21 852 25.16 -10.2 13.7 69 -14.8 5.4
07:25 1023 30.21 852 25.16 -10.6 12.9 76 -14.1 6.7
07:30 1023 30.21 852 25.16 -11.9 10.7 80 -14.6 5.7
07:35 1023 30.21 852 25.16 -12.3 9.9 81 -14.9 5.2
07:40 1023 30.21 852 25.16 -12.4 9.7 82 -14.9 5.2
07:45 1023 30.21 852 25.16 -12.6 9.3 82 -15 5
07:50 1023 30.21 852 25.16 -12.2 10.1 80 -14.9 5.2
07:55 1023 30.21 852 25.16 -11.7 11 78 -14.8 5.3
08:00 1023 30.21 852 25.16 -12.1 10.2 78 -15.2 4.7
08:05 1023 30.21 852 25.16 -12.4 9.7 80 -15.1 4.8
08:10 1022 30.18 852 25.16 -12 10.4 79 -14.9 5.1
08:15 1023 30.21 852 25.16 -11.5 11.2 78 -14.7 5.6
08:20 1023 30.21 852 25.16 -11.3 11.6 77 -14.7 5.6
08:25 1023 30.21 852 25.16 -10.8 12.6 72 -14.9 5.3
08:30 1023 30.21 852 25.16 -10.2 13.6 71 -14.4 6
08:35 1023 30.21 852 25.16 -9.9 14.3 69 -14.6 5.8
08:40 1022 30.18 852 25.16 -9.5 14.9 69 -14.2 6.5
08:45 1022 30.18 852 25.16 -9.4 15 72 -13.7 7.4
08:50 1023 30.21 852 25.16 -9.4 15 73 -13.4 7.8
08:55 1023 30.21 852 25.16 -9.5 15 72 -13.6 7.5
09:00 1023 30.21 852 25.16 -9.2 15.5 70 -13.7 7.3
09:05 1023 30.21 852 25.16 -8.8 16.2 70 -13.3 8.1
09:10 1023 30.21 852 25.16 -8.6 16.6 69 -13.3 8
09:15 1023 30.21 852 25.16 -8.4 16.8 73 -12.5 9.5
09:20 1023 30.21 852 25.16 -8.5 16.8 70 -13 8.6
09:25 1023 30.21 852 25.16 -8.4 16.8 71 -12.8 8.9
09:30 1023 30.21 852 25.16 -8.1 17.3 69 -12.8 8.9
09:35 1023 30.21 852 25.16 -7.6 18.3 68 -12.6 9.4
09:40 1023 30.21 852 25.16 -7.4 18.6 67 -12.5 9.5
09:45 1023 30.21 852 25.16 -7.2 19 70 -11.9 10.6
09:50 1023 30.21 852 25.16 -7 19.4 68 -11.9 10.5
09:55 1023 30.21 852 25.16 -6.6 20.1 68 -11.6 11.1
10:00 1023 30.21 852 25.16 -6.4 20.4 69 -11.2 11.8
10:05 1023 30.21 852 25.16 -6.1 20.9 67 -11.4 11.5
10:10 1023 30.21 852 25.16 -5.9 21.3 63 -11.8 10.7
10:15 1023 30.21 852 25.16 -5.7 21.8 63 -11.5 11.2
10:20 1023 30.21 852 25.16 -5.1 22.9 63 -11.1 12
10:25 1023 30.21 852 25.16 -4.8 23.4 62 -11 12.1
10:30 1023 30.21 852 25.16 -4 24.7 54 -12 10.4
10:35 1023 30.21 852 25.16 -3.9 24.9 57 -11.2 11.8
10:40 1023 30.21 853 25.19 -3.7 25.4 50 -12.6 9.4
10:45 1023 30.21 852 25.16 -3.4 25.9 51 -12 10.3
10:50 1023 30.21 852 25.16 -4 24.7 58 -11.2 11.9
10:55 1023 30.21 852 25.16 -4.4 24.2 57 -11.7 10.9
11:00 1023 30.21 852 25.16 -4.4 24.2 56 -11.8 10.8
11:05 1023 30.21 852 25.16 -4.2 24.4 56 -11.7 11
11:10 1023 30.21 852 25.16 -3.8 25.2 55 -11.5 11.2
11:15 1023 30.21 852 25.16 -3.8 25.2 57 -11.2 11.8
11:20 1023 30.21 852 25.16 -3.6 25.5 55 -11.3 11.6
11:25 1022 30.18 852 25.16 -2.8 26.9 54 -11 12.3
11:30 1022 30.18 852 25.16 -1.2 29.8 47 -11.2 11.9
11:35 1022 30.18 851 25.13 -1.3 29.7 49 -10.8 12.6
11:40 1022 30.18 851 25.13 -1.9 28.6 49 -11.2 11.8
11:45 1022 30.18 851 25.13 -1.5 29.3 49 -10.9 12.4
11:50 1022 30.18 851 25.13 -0 31.9 44 -10.8 12.5
11:55 1022 30.18 851 25.13 0.9 33.7 41 -10.9 12.4
12:00 1022 30.18 851 25.13 0.1 32.2 47 -9.9 14.2
12:05 1022 30.18 851 25.13 0.1 32.1 44 -10.7 12.7
12:10 1022 30.18 851 25.13 0.4 32.8 44 -10.6 12.9
12:15 1021 30.15 851 25.13 -0.3 31.4 48 -10 13.9
12:20 1021 30.15 850 25.1 -0.3 31.4 46 -10.6 12.9
12:25 1021 30.15 850 25.1 0.4 32.7 45 -10.2 13.7
12:30 1021 30.15 850 25.1 1.1 34.1 42 -10.3 13.5
12:35 1021 30.15 850 25.1 1 33.8 44 -10 14
12:40 1021 30.15 850 25.1 1.1 33.9 43 -10 13.9
12:45 1021 30.15 850 25.1 1.1 34 44 -9.9 14.2
12:50 1021 30.15 850 25.1 1.2 34.2 44 -9.6 14.7
12:55 1021 30.15 850 25.1 1.3 34.3 44 -9.7 14.5
13:00 1021 30.15 850 25.1 1.7 35 45 -9.1 15.5
13:05 1021 30.15 850 25.1 1.8 35.2 45 -8.9 15.9
13:10 1021 30.15 850 25.1 1.7 35 43 -9.6 14.7
13:15 1021 30.15 850 25.1 1 33.8 44 -9.9 14.2
13:20 1021 30.15 850 25.1 1.5 34.6 43 -9.9 14.2
13:25 1021 30.15 850 25.1 1.8 35.2 43 -9.5 15
13:30 1021 30.15 850 25.1 1.4 34.5 45 -9.2 15.4
13:35 1021 30.15 850 25.1 1.1 34 45 -9.7 14.6
13:40 1021 30.15 850 25.1 0.9 33.7 46 -9.3 15.3
13:45 1021 30.15 850 25.1 0.8 33.5 46 -9.6 14.8
13:50 1021 30.15 850 25.1 -0.3 31.5 51 -9.1 15.6
13:55 1021 30.15 850 25.1 -1.8 28.8 55 -9.7 14.5
14:00 1021 30.15 850 25.1 -1.9 28.6 55 -9.8 14.3
14:05 1021 30.15 850 25.1 -2.2 28 55 -10.1 13.8
14:10 1021 30.15 850 25.1 -2.6 27.4 57 -10 14.1
14:15 1021 30.15 850 25.1 -2.8 26.9 61 -9.4 15.1
14:20 1021 30.15 850 25.1 -2 28.3 55 -9.9 14.2
14:25 1021 30.15 850 25.1 -1.5 29.4 56 -9 15.7
14:30 1021 30.15 850 25.1 -1.1 30 55 -9 15.8
14:35 1021 30.15 850 25.1 -0.9 30.5 56 -8.7 16.4
14:40 1021 30.15 850 25.1 -1.1 30.1 56 -8.6 16.4
14:45 1021 30.15 850 25.1 -1.4 29.5 57 -8.9 16.1
14:50 1021 30.15 850 25.1 -0.3 31.4 51 -9.4 15.2
14:55 1021 30.15 850 25.1 0.9 33.6 49 -8.7 16.3
15:00 1021 30.15 850 25.1 0.9 33.6 49 -8.6 16.5
15:05 1021 30.15 850 25.1 0.8 33.5 50 -8.5 16.8
15:10 1021 30.15 850 25.1 0.7 33.2 50 -8.6 16.5
15:15 1021 30.15 850 25.1 0.3 32.6 51 -8.8 16.2
15:20 1021 30.15 850 25.1 -0 32 51 -9 15.7
15:25 1021 30.15 850 25.1 0 32.1 50 -9.2 15.4
15:30 1021 30.15 850 25.1 0.1 32.1 50 -9.2 15.4
15:35 1021 30.15 850 25.1 0.2 32.3 49 -9.3 15.2
15:40 1021 30.15 850 25.1 0 32 50 -9.2 15.5
15:45 1021 30.15 851 25.13 -0.2 31.7 50 -9.3 15.3
15:50 1021 30.15 851 25.13 -0.3 31.4 51 -9.2 15.4
15:55 1021 30.15 851 25.13 -0.5 31.1 51 -9.4 15.1
16:00 1022 30.18 851 25.13 -0.6 31 52 -9.3 15.3
16:05 1022 30.18 851 25.13 -0.5 31.1 50 -9.6 14.8
16:10 1021 30.15 851 25.13 -0.4 31.3 50 -9.5 14.9
16:15 1021 30.15 851 25.13 -0.2 31.6 50 -9.4 15
16:20 1022 30.18 851 25.13 -0.2 31.6 51 -9.3 15.3
16:25 1022 30.18 851 25.13 -0.3 31.4 51 -9.4 15.1
16:30 1022 30.18 851 25.13 -0.4 31.3 51 -9.4 15.1
16:35 1022 30.18 851 25.13 -0.4 31.3 52 -9.2 15.5
16:40 1022 30.18 851 25.13 -0.5 31.1 53 -9 15.8
16:45 1022 30.18 851 25.13 -0.5 31.2 53 -8.9 16
16:50 1022 30.18 851 25.13 -0.7 30.8 54 -8.9 15.9
16:55 1022 30.18 851 25.13 -0.8 30.6 54 -9 15.8
17:00 1022 30.18 851 25.13 -1 30.1 55 -9.1 15.7
17:05 1022 30.18 851 25.13 -1.3 29.6 56 -9.1 15.6
17:10 1022 30.18 851 25.13 -1.9 28.6 57 -9.4 15.2
17:15 1022 30.18 851 25.13 -1.9 28.5 57 -9.4 15
17:20 1022 30.18 851 25.13 -1.8 28.8 55 -9.7 14.5
17:25 1022 30.18 851 25.13 -1.4 29.5 52 -10 14.1
17:30 1022 30.18 851 25.13 -1.1 29.9 51 -10 14.1
17:35 1022 30.18 851 25.13 -1 30.1 52 -9.8 14.4
17:40 1022 30.18 851 25.13 -1.1 30 52 -9.7 14.5
17:45 1022 30.18 851 25.13 -1.2 29.8 53 -9.5 14.8
17:50 1022 30.18 851 25.13 -1.6 29.1 56 -9.3 15.2
17:55 1022 30.18 851 25.13 -1.9 28.6 57 -9.4 15
18:00 1022 30.18 852 25.16 -2.1 28.2 58 -9.4 15
18:05 1022 30.18 852 25.16 -2.7 27.2 61 -9.3 15.3
18:10 1023 30.21 852 25.16 -2.9 26.7 61 -9.4 15
18:15 1023 30.21 852 25.16 -3 26.6 60 -9.7 14.5
18:20 1023 30.21 852 25.16 -2.7 27.1 58 -9.8 14.4
18:25 1023 30.21 852 25.16 -2.8 27 58 -9.9 14.2
18:30 1023 30.21 852 25.16 -2.7 27.1 57 -10 14
18:35 1023 30.21 852 25.16 -2.5 27.5 57 -9.9 14.2
18:40 1023 30.21 852 25.16 -2.2 28.1 56 -9.8 14.4
18:45 1023 30.21 852 25.16 -2.4 27.8 57 -9.7 14.5
18:50 1023 30.21 853 25.19 -2.8 27 58 -9.9 14.2
18:55 1023 30.21 853 25.19 -3.3 26 61 -9.8 14.4
19:00 1024 30.24 853 25.19 -3.7 25.4 61 -10.2 13.7
19:05 1024 30.24 853 25.19 -3.8 25.1 61 -10.3 13.4
19:10 1024 30.24 853 25.19 -3.1 26.4 58 -10.1 13.8
19:15 1024 30.24 853 25.19 -2.9 26.8 58 -10 13.9
19:20 1024 30.24 853 25.19 -2.5 27.5 57 -9.9 14.2
19:25 1024 30.24 853 25.19 -2.6 27.4 57 -9.9 14.1
19:30 1024 30.24 853 25.19 -2.5 27.5 57 -9.9 14.2
19:35 1024 30.24 853 25.19 -2.6 27.3 57 -10 14.1
19:40 1024 30.24 853 25.19 -3.3 26.1 62 -9.6 14.7
19:45 1024 30.24 853 25.19 -3.9 25.1 65 -9.6 14.7
19:50 1024 30.24 853 25.19 -3.7 25.3 63 -9.9 14.2
19:55 1024 30.24 853 25.19 -2.9 26.7 59 -9.9 14.1
20:00 1024 30.24 853 25.19 -2.4 27.6 57 -9.8 14.3
20:05 1024 30.24 853 25.19 -2.4 27.6 57 -9.8 14.4
20:10 1024 30.24 853 25.19 -2.5 27.4 57 -9.9 14.1
20:15 1024 30.24 853 25.19 -2.6 27.3 59 -9.6 14.8
20:20 1024 30.24 853 25.19 -3.2 26.3 62 -9.5 14.9
20:25 1024 30.24 853 25.19 -3.4 25.8 62 -9.7 14.5
20:30 1024 30.24 853 25.19 -3.3 26.1 62 -9.6 14.8
20:35 1024 30.24 853 25.19 -3 26.6 61 -9.6 14.7
20:40 1024 30.24 853 25.19 -2.7 27.1 59 -9.6 14.8
20:45 1024 30.24 853 25.19 -3.1 26.4 61 -9.5 14.8
20:50 1024 30.24 853 25.19 -3.3 26.1 62 -9.5 14.9
20:55 1024 30.24 853 25.19 -3.1 26.5 60 -9.9 14.2
21:00 1024 30.24 854 25.22 -3 26.6 60 -9.6 14.7
21:05 1024 30.24 854 25.22 -3.4 25.8 62 -9.7 14.6
21:10 1024 30.24 854 25.22 -3.6 25.6 62 -9.7 14.5
21:15 1024 30.24 853 25.19 -3.3 26.1 62 -9.5 14.8
21:20 1024 30.24 854 25.22 -4.1 24.6 67 -9.3 15.2
21:25 1024 30.24 853 25.19 -4.4 24.1 68 -9.4 15
21:30 1024 30.24 853 25.19 -4.3 24.2 69 -9.2 15.4
21:35 1024 30.24 853 25.19 -4.3 24.3 69 -9.2 15.5
21:40 1024 30.24 854 25.22 -4.1 24.6 64 -9.9 14.1
21:45 1024 30.24 854 25.22 -3.5 25.6 59 -10.4 13.3
21:50 1024 30.24 854 25.22 -3.2 26.3 57 -10.4 13.2
21:55 1024 30.24 854 25.22 -2.9 26.7 56 -10.5 13.2
22:00 1024 30.24 854 25.22 -3.4 26 58 -10.5 13
22:05 1025 30.27 854 25.22 -4.2 24.5 63 -10.1 13.8
22:10 1025 30.27 854 25.22 -5.7 21.7 69 -10.5 13
22:15 1025 30.27 854 25.22 -6 21.2 69 -10.7 12.7
22:20 1025 30.27 854 25.22 -5.6 22 67 -10.7 12.7
22:25 1025 30.27 854 25.22 -5.5 22 67 -10.7 12.7
22:30 1025 30.27 854 25.22 -5.4 22.3 67 -10.6 12.8
22:35 1025 30.27 854 25.22 -5.2 22.6 67 -10.5 13.1
22:40 1025 30.27 854 25.22 -5 22.9 65 -10.6 12.8
22:45 1025 30.27 854 25.22 -4.6 23.6 64 -10.5 13.1
22:50 1025 30.27 854 25.22 -4.6 23.7 64 -10.5 13.1
22:55 1025 30.27 854 25.22 -4.7 23.5 64 -10.6 13
23:00 1025 30.27 854 25.22 -4.7 23.6 64 -10.4 13.2
23:05 1025 30.27 854 25.22 -4.8 23.3 66 -10.2 13.6
23:10 1025 30.27 854 25.22 -4.9 23.1 66 -10.4 13.3
23:15 1025 30.27 854 25.22 -4.5 23.9 63 -10.5 13.1
23:20 1025 30.27 855 25.25 -3.8 25.1 61 -10.4 13.3
23:25 1025 30.27 855 25.25 -3.6 25.5 60 -10.3 13.5
23:30 1025 30.27 855 25.25 -3.6 25.5 61 -10 14.1
23:35 1025 30.27 855 25.25 -3.8 25.2 63 -9.8 14.3
23:40 1025 30.27 855 25.25 -4 24.7 64 -9.9 14.1
23:45 1026 30.3 855 25.25 -4.3 24.3 65 -10 14.1
23:50 1026 30.3 855 25.25 -4.4 24.1 65 -10 14
23:55 1026 30.3 855 25.25 -4.3 24.3 64 -10 14
24:00 1026 30.3 855 25.25 -4.2 24.5 64 -10.1 13.9